Time;durP1;ratioP1;P1;durP2;ratioP2;P2;SDS_P1;SDS_P2;PMS_P1;PMS_P2;Temp;Humidity;BMP_temperature;BMP_pressure;BME280_temperature;BME280_humidity;BME280_pressure;Samples;Min_cycle;Max_cycle;Signal;HPM_P1;HPM_P2
2022/09/17 10:05:12;;;;;;;20.10;5.57;;;;;;;;;;5070336;28;20389;-88
2022/09/17 10:07:44;;;;;;;11.70;2.92;;;;;;;;;;5070378;28;20115;-88
2022/09/17 10:10:09;;;;;;;2.85;2.03;;;;;;;;;;5069730;28;20013;-88
2022/09/17 10:12:35;;;;;;;1.80;1.00;;;;;;;;;;5069344;28;20515;-87
2022/09/17 10:15:16;;;;;;;2.87;1.03;;;;;;;;;;5069166;28;20021;-88
2022/09/17 10:17:42;;;;;;;4.00;1.80;;;;;;;;;;5051509;28;20279;-88
2022/09/17 10:20:16;;;;;;;6.37;2.83;;;;;;;;;;5069300;28;20020;-87
2022/09/17 10:22:46;;;;;;;7.38;2.40;;;;;;;;;;5069373;28;20294;-88
2022/09/17 10:25:26;;;;;;;5.78;2.90;;;;;;;;;;5069615;28;20503;-88
2022/09/17 10:27:51;;;;;;;3.00;1.58;;;;;;;;;;5067790;28;20100;-87
2022/09/17 10:30:17;;;;;;;4.75;3.10;;;;;;;;;;5049081;28;20112;-88
2022/09/17 10:32:43;;;;;;;7.05;1.40;;;;;;;;;;5049014;28;20021;-88
2022/09/17 10:35:14;;;;;;;1.45;1.23;;;;;;;;;;5048767;28;20474;-88
2022/09/17 10:37:41;;;;;;;3.10;1.23;;;;;;;;;;5049309;28;20469;-86
2022/09/17 10:40:19;;;;;;;5.28;1.65;;;;;;;;;;5049377;28;20025;-87
2022/09/17 10:42:48;;;;;;;1.17;0.75;;;;;;;;;;5048670;28;20020;-85
2022/09/17 10:45:32;;;;;;;1.58;1.40;;;;;;;;;;5048755;28;20028;-87
2022/09/17 10:47:58;;;;;;;1.38;0.80;;;;;;;;;;5048629;28;20112;-86
2022/09/17 10:50:31;;;;;;;2.47;0.60;;;;;;;;;;5048952;28;20018;-86
2022/09/17 10:52:58;;;;;;;0.55;0.55;;;;;;;;;;5049696;28;20044;-86
2022/09/17 10:55:24;;;;;;;7.10;1.00;;;;;;;;;;5048019;28;20013;-84
2022/09/17 10:58:05;;;;;;;0.40;0.40;;;;;;;;;;5054690;28;20023;-85
2022/09/17 11:00:49;;;;;;;0.40;0.40;;;;;;;;;;5048517;28;20072;-88
2022/09/17 11:03:33;;;;;;;4.78;0.60;;;;;;;;;;5047952;28;20049;-86
2022/09/17 11:06:11;;;;;;;0.65;0.60;;;;;;;;;;5049418;28;20038;-89
2022/09/17 11:08:37;;;;;;;0.57;0.57;;;;;;;;;;5048508;28;20027;-87
2022/09/17 11:11:21;;;;;;;0.57;0.35;;;;;;;;;;5048093;28;20021;-86
2022/09/17 11:13:58;;;;;;;2.83;0.77;;;;;;;;;;5050436;28;20020;-88
2022/09/17 11:16:26;;;;;;;3.88;1.38;;;;;;;;;;5042613;28;20041;-89
2022/09/17 11:18:55;;;;;;;4.78;2.50;;;;;;;;;;5049018;28;20060;-88
2022/09/17 11:21:23;;;;;;;0.47;0.47;;;;;;;;;;5054201;28;20071;-90
2022/09/17 11:24:10;;;;;;;1.70;0.60;;;;;;;;;;5053926;28;20024;-87
2022/09/17 11:26:56;;;;;;;4.23;1.23;;;;;;;;;;5053237;28;20089;-89
2022/09/17 11:29:28;;;;;;;1.25;0.80;;;;;;;;;;5053639;28;20096;-89
2022/09/17 11:32:02;;;;;;;3.00;0.90;;;;;;;;;;5055507;28;20044;-88
2022/09/17 11:34:36;;;;;;;0.75;0.73;;;;;;;;;;5053393;28;20021;-90
2022/09/17 11:37:11;;;;;;;2.28;1.00;;;;;;;;;;5054463;28;20019;-90
2022/09/17 11:39:42;;;;;;;6.68;0.65;;;;;;;;;;5054336;28;20115;-89
2022/09/17 11:42:11;;;;;;;3.97;1.30;;;;;;;;;;5053963;28;20116;-89
2022/09/17 11:45:02;;;;;;;0.55;0.55;;;;;;;;;;5056265;28;20025;-88
2022/09/17 11:47:35;;;;;;;5.90;0.98;;;;;;;;;;5046009;28;20029;-88
2022/09/17 11:50:09;;;;;;;3.92;0.88;;;;;;;;;;5054616;28;20028;-89
2022/09/17 11:52:38;;;;;;;0.93;0.65;;;;;;;;;;5057934;28;20173;-89
2022/09/17 11:55:15;;;;;;;0.98;0.90;;;;;;;;;;5058041;28;20056;-89
2022/09/17 11:57:40;;;;;;;5.75;0.95;;;;;;;;;;5057211;28;20361;-90
2022/09/17 12:00:12;;;;;;;4.18;1.25;;;;;;;;;;5058479;28;20025;-90
2022/09/17 12:02:40;;;;;;;1.00;0.88;;;;;;;;;;5057475;28;20021;-89
2022/09/17 12:05:05;;;;;;;;;;;;;;;;;;5056009;28;20144;-89
2022/09/17 12:08:00;;;;;;;0.63;0.43;;;;;;;;;;5054291;28;19998;-90
2022/09/17 12:10:33;;;;;;;2.65;0.82;;;;;;;;;;5037861;28;20020;-89
2022/09/17 12:13:13;;;;;;;2.13;0.70;;;;;;;;;;5052524;28;20021;-90
2022/09/17 12:15:39;;;;;;;2.72;0.90;;;;;;;;;;5036808;28;20021;-90
2022/09/17 12:18:19;;;;;;;2.00;1.13;;;;;;;;;;5034677;28;20088;-89
2022/09/17 12:20:46;;;;;;;4.47;0.68;;;;;;;;;;5035598;28;20492;-88
2022/09/17 12:23:15;;;;;;;0.55;0.50;;;;;;;;;;5037486;28;20027;-88
2022/09/17 12:25:48;;;;;;;3.28;1.40;;;;;;;;;;5049224;28;20013;-87
2022/09/17 12:28:24;;;;;;;3.65;0.80;;;;;;;;;;5034751;28;20022;-87
2022/09/17 12:31:01;;;;;;;1.33;0.75;;;;;;;;;;5035159;28;20022;-90
2022/09/17 12:33:36;;;;;;;3.30;1.10;;;;;;;;;;5035000;28;20450;-87
2022/09/17 12:36:21;;;;;;;0.65;0.40;;;;;;;;;;5052511;28;20017;-87
2022/09/17 12:39:05;;;;;;;0.60;0.38;;;;;;;;;;5052800;28;20025;-88
2022/09/17 12:41:33;;;;;;;1.27;0.60;;;;;;;;;;5039900;28;20063;-87
2022/09/17 12:44:01;;;;;;;1.08;0.65;;;;;;;;;;5034410;28;20037;-88
2022/09/17 12:46:27;;;;;;;2.55;0.52;;;;;;;;;;5033754;28;20040;-89
2022/09/17 12:49:11;;;;;;;1.00;0.57;;;;;;;;;;5033670;28;20005;-88
2022/09/17 12:51:39;;;;;;;0.98;0.82;;;;;;;;;;5034821;28;20017;-88
2022/09/17 12:54:07;;;;;;;1.40;0.80;;;;;;;;;;5049156;28;20432;-87
2022/09/17 12:56:42;;;;;;;0.95;0.70;;;;;;;;;;5034015;28;20540;-88
2022/09/17 12:59:29;;;;;;;0.38;0.38;;;;;;;;;;5033313;28;20028;-89
2022/09/17 13:01:57;;;;;;;1.52;0.65;;;;;;;;;;5034845;28;20474;-89
2022/09/17 13:04:28;;;;;;;0.30;0.30;;;;;;;;;;5053161;28;20483;-89
2022/09/17 13:06:59;;;;;;;0.88;0.30;;;;;;;;;;5054545;28;20029;-89
2022/09/17 13:09:31;;;;;;;1.42;0.82;;;;;;;;;;5053189;28;20024;-89
2022/09/17 13:12:15;;;;;;;3.03;0.47;;;;;;;;;;5041466;28;20059;-89
2022/09/17 13:14:50;;;;;;;1.30;0.82;;;;;;;;;;5041437;28;20468;-89
2022/09/17 13:17:26;;;;;;;0.30;0.30;;;;;;;;;;5052832;28;20104;-89
2022/09/17 13:19:54;;;;;;;1.05;0.40;;;;;;;;;;5051161;28;20075;-90
2022/09/17 13:22:21;;;;;;;0.60;0.30;;;;;;;;;;5049547;28;20104;-88
2022/09/17 13:24:59;;;;;;;5.63;0.83;;;;;;;;;;5057287;28;20210;-89
2022/09/17 13:27:25;;;;;;;0.73;0.55;;;;;;;;;;5058268;28;20021;-90
2022/09/17 13:29:53;;;;;;;0.40;0.40;;;;;;;;;;5045765;28;20013;-89
2022/09/17 13:32:31;;;;;;;0.63;0.35;;;;;;;;;;5048423;28;20116;-91
2022/09/17 13:35:18;;;;;;;0.82;0.75;;;;;;;;;;5049036;28;20094;-91
2022/09/17 13:37:44;;;;;;;1.90;0.50;;;;;;;;;;5041144;28;20522;-90
2022/09/17 13:40:20;;;;;;;2.50;0.50;;;;;;;;;;5048522;28;20370;-91
2022/09/17 13:42:47;;;;;;;1.65;0.35;;;;;;;;;;5033656;28;20044;-91
2022/09/17 13:45:15;;;;;;;0.35;0.35;;;;;;;;;;5048362;28;20078;-91
2022/09/17 13:47:54;;;;;;;0.82;0.40;;;;;;;;;;5052260;28;20484;-89
2022/09/17 13:50:25;;;;;;;1.20;0.85;;;;;;;;;;5049064;28;20033;-91
2022/09/17 13:52:51;;;;;;;0.98;0.85;;;;;;;;;;5049161;28;20025;-90
2022/09/17 13:55:37;;;;;;;0.30;0.30;;;;;;;;;;5047847;28;20025;-91
2022/09/17 13:58:07;;;;;;;0.55;0.45;;;;;;;;;;5032312;28;20022;-90
2022/09/17 14:00:52;;;;;;;1.02;0.50;;;;;;;;;;5047818;28;20096;-89
2022/09/17 14:03:27;;;;;;;0.52;0.43;;;;;;;;;;5047799;28;20087;-90
2022/09/17 14:05:53;;;;;;;0.35;0.35;;;;;;;;;;5044939;28;20496;-87
2022/09/17 14:08:30;;;;;;;0.75;0.57;;;;;;;;;;5051743;28;20025;-90
2022/09/17 14:10:57;;;;;;;1.25;0.47;;;;;;;;;;5049032;28;20009;-89
2022/09/17 14:13:43;;;;;;;2.42;0.88;;;;;;;;;;5035152;28;20040;-88
2022/09/17 14:16:27;;;;;;;1.42;0.60;;;;;;;;;;5041479;28;20026;-89
2022/09/17 14:19:21;;;;;;;1.27;0.50;;;;;;;;;;5047094;28;20013;-89
2022/09/17 14:21:56;;;;;;;1.80;0.40;;;;;;;;;;5038170;28;20079;-89
2022/09/17 14:24:40;;;;;;;0.73;0.68;;;;;;;;;;5043117;28;20032;-89
2022/09/17 14:27:24;;;;;;;2.80;0.55;;;;;;;;;;5040035;28;20048;-90
2022/09/17 14:29:58;;;;;;;2.28;0.43;;;;;;;;;;5047522;28;20028;-89
2022/09/17 14:32:31;;;;;;;3.03;0.95;;;;;;;;;;5051715;28;20025;-90
2022/09/17 14:34:57;;;;;;;0.20;0.20;;;;;;;;;;5039548;28;20025;-90
2022/09/17 14:37:22;;;;;;;3.05;0.50;;;;;;;;;;5036113;28;20017;-89
2022/09/17 14:39:48;;;;;;;1.35;0.63;;;;;;;;;;5032202;28;20028;-90
2022/09/17 14:42:15;;;;;;;2.17;0.52;;;;;;;;;;5031937;28;20028;-90
2022/09/17 14:44:55;;;;;;;0.47;0.30;;;;;;;;;;5032107;28;20029;-90
2022/09/17 14:47:21;;;;;;;0.50;0.50;;;;;;;;;;5032319;28;20029;-88
2022/09/17 14:49:47;;;;;;;1.75;1.05;;;;;;;;;;5032212;28;20528;-87
2022/09/17 14:52:42;;;;;;;0.68;0.50;;;;;;;;;;5035376;28;20053;-87
2022/09/17 14:55:28;;;;;;;4.53;0.45;;;;;;;;;;5030874;28;20033;-91
2022/09/17 14:57:57;;;;;;;0.80;0.50;;;;;;;;;;5036350;28;20022;-90
2022/09/17 15:00:36;;;;;;;1.67;0.50;;;;;;;;;;5036929;28;20039;-90
2022/09/17 15:03:02;;;;;;;2.88;0.90;;;;;;;;;;5035609;28;20017;-90
2022/09/17 15:05:34;;;;;;;2.70;1.27;;;;;;;;;;5035478;28;20381;-88
2022/09/17 15:08:05;;;;;;;1.40;0.77;;;;;;;;;;5035207;28;20021;-83
2022/09/17 15:10:31;;;;;;;4.50;0.52;;;;;;;;;;5034303;28;20014;-83
2022/09/17 15:12:57;;;;;;;0.85;0.75;;;;;;;;;;5034318;28;20047;-83
2022/09/17 15:15:23;;;;;;;1.80;0.80;;;;;;;;;;5033481;28;20040;-83
2022/09/17 15:17:50;;;;;;;6.13;1.00;;;;;;;;;;5034204;28;20057;-83
2022/09/17 15:20:18;;;;;;;0.90;0.52;;;;;;;;;;5050514;28;20078;-82
2022/09/17 15:22:47;;;;;;;0.40;0.40;;;;;;;;;;5054732;28;20017;-81
2022/09/17 15:25:16;;;;;;;3.03;0.60;;;;;;;;;;5051845;28;20037;-80
2022/09/17 15:27:43;;;;;;;5.00;0.68;;;;;;;;;;5042342;28;20021;-81
2022/09/17 15:30:18;;;;;;;6.85;0.70;;;;;;;;;;5051413;28;20104;-81
2022/09/17 15:32:50;;;;;;;3.67;0.47;;;;;;;;;;5039225;28;20029;-81
2022/09/17 15:35:21;;;;;;;39.47;18.85;;;;;;;;;;5041789;28;20480;-82
2022/09/17 15:37:46;;;;;;;23.67;9.05;;;;;;;;;;5034996;28;20022;-81
2022/09/17 15:40:31;;;;;;;11.32;4.10;;;;;;;;;;5046104;28;20373;-81
2022/09/17 15:43:11;;;;;;;3.80;1.88;;;;;;;;;;5053930;28;20487;-81
2022/09/17 15:45:38;;;;;;;8.63;4.35;;;;;;;;;;5053375;28;20029;-80
2022/09/17 15:48:04;;;;;;;2.00;1.40;;;;;;;;;;5035819;28;20053;-80
2022/09/17 15:50:31;;;;;;;1.60;0.90;;;;;;;;;;5033375;28;20017;-79
2022/09/17 15:53:10;;;;;;;1.00;0.97;;;;;;;;;;5033162;28;20087;-79
2022/09/17 15:55:47;;;;;;;1.23;0.63;;;;;;;;;;5034039;28;20045;-80
2022/09/17 15:58:26;;;;;;;1.43;1.30;;;;;;;;;;5034524;28;20017;-79
2022/09/17 16:01:10;;;;;;;0.80;0.75;;;;;;;;;;5045734;28;20267;-78
2022/09/17 16:03:39;;;;;;;4.82;2.58;;;;;;;;;;5048042;28;20124;-79
2022/09/17 16:06:16;;;;;;;6.22;4.28;;;;;;;;;;5059877;28;20484;-79
2022/09/17 16:08:42;;;;;;;2.58;1.33;;;;;;;;;;5033006;28;20040;-79
2022/09/17 16:11:08;;;;;;;3.45;0.98;;;;;;;;;;5038696;28;20451;-79
2022/09/17 16:13:33;;;;;;;1.00;0.82;;;;;;;;;;5052878;28;20036;-78
2022/09/17 16:15:58;;;;;;;0.63;0.63;;;;;;;;;;5047061;28;20027;-79
2022/09/17 16:18:23;;;;;;;1.58;0.90;;;;;;;;;;5053311;28;20082;-79
2022/09/17 16:20:49;;;;;;;1.83;0.98;;;;;;;;;;5052761;28;20017;-78
2022/09/17 16:23:14;;;;;;;4.18;1.23;;;;;;;;;;5033669;28;20025;-78
2022/09/17 16:25:40;;;;;;;1.80;0.80;;;;;;;;;;5032631;28;20485;-79
2022/09/17 16:28:09;;;;;;;1.10;0.65;;;;;;;;;;5032687;28;20026;-78
2022/09/17 16:30:34;;;;;;;1.30;0.50;;;;;;;;;;5033268;28;20020;-80
2022/09/17 16:33:02;;;;;;;1.02;0.50;;;;;;;;;;5033350;28;20022;-80
2022/09/17 16:35:27;;;;;;;1.55;0.60;;;;;;;;;;5046596;28;20029;-80
2022/09/17 16:37:54;;;;;;;1.17;0.63;;;;;;;;;;5038753;28;20018;-81
2022/09/17 16:40:20;;;;;;;1.92;0.77;;;;;;;;;;5047594;28;20075;-80
2022/09/17 16:42:46;;;;;;;1.30;0.60;;;;;;;;;;5052311;28;20158;-78
2022/09/17 16:45:11;;;;;;;0.88;0.75;;;;;;;;;;5045988;28;20140;-80
2022/09/17 16:47:37;;;;;;;0.57;0.57;;;;;;;;;;5032165;28;20025;-80
2022/09/17 16:50:06;;;;;;;0.73;0.50;;;;;;;;;;5032229;28;20294;-80
2022/09/17 16:52:32;;;;;;;1.05;0.55;;;;;;;;;;5032428;28;20014;-79
2022/09/17 16:54:58;;;;;;;0.70;0.50;;;;;;;;;;5032013;28;20026;-79
2022/09/17 16:57:23;;;;;;;1.42;1.17;;;;;;;;;;5036873;28;20052;-80
2022/09/17 16:59:48;;;;;;;0.80;0.60;;;;;;;;;;5051666;28;20024;-79
2022/09/17 17:02:14;;;;;;;3.27;0.70;;;;;;;;;;5050780;28;20016;-80
2022/09/17 17:04:39;;;;;;;1.13;0.70;;;;;;;;;;5031272;28;20916;-79
2022/09/17 17:07:04;;;;;;;1.07;0.60;;;;;;;;;;5032199;28;20262;-79
2022/09/17 17:09:30;;;;;;;6.88;1.30;;;;;;;;;;5032445;28;20675;-80
2022/09/17 17:11:55;;;;;;;1.50;0.97;;;;;;;;;;5035380;28;20017;-79
2022/09/17 17:14:20;;;;;;;6.28;1.20;;;;;;;;;;5039318;28;20607;-80
2022/09/17 17:16:45;;;;;;;2.33;0.80;;;;;;;;;;5071633;28;20490;-80
2022/09/17 17:19:11;;;;;;;3.83;0.63;;;;;;;;;;5071874;28;20257;-79
2022/09/17 17:21:36;;;;;;;0.95;0.57;;;;;;;;;;5060977;28;20263;-80
2022/09/17 17:24:02;;;;;;;0.68;0.60;;;;;;;;;;5037256;28;20404;-79
2022/09/17 17:26:27;;;;;;;1.02;0.55;;;;;;;;;;5043645;28;20036;-80
2022/09/17 17:28:52;;;;;;;0.50;0.40;;;;;;;;;;5040609;28;20461;-83
2022/09/17 17:31:18;;;;;;;1.95;0.95;;;;;;;;;;5047719;28;20287;-80
2022/09/17 17:33:43;;;;;;;0.60;0.55;;;;;;;;;;5047850;28;20116;-81
2022/09/17 17:36:08;;;;;;;3.40;0.90;;;;;;;;;;5039968;28;20013;-80
2022/09/17 17:38:34;;;;;;;0.77;0.63;;;;;;;;;;5031451;28;20257;-81
2022/09/17 17:41:04;;;;;;;3.15;1.35;;;;;;;;;;5031337;28;20025;-81
2022/09/17 17:43:29;;;;;;;1.80;0.73;;;;;;;;;;5032030;28;20022;-81
2022/09/17 17:45:54;;;;;;;1.00;0.82;;;;;;;;;;5031857;28;20045;-80
2022/09/17 17:48:20;;;;;;;1.07;0.40;;;;;;;;;;5031229;28;20488;-81
2022/09/17 17:50:45;;;;;;;0.75;0.70;;;;;;;;;;5049838;28;20259;-81
2022/09/17 17:53:10;;;;;;;1.08;1.02;;;;;;;;;;5050829;28;20033;-81
2022/09/17 17:55:36;;;;;;;0.70;0.70;;;;;;;;;;5051375;28;20028;-81
2022/09/17 17:58:01;;;;;;;0.52;0.52;;;;;;;;;;5051088;28;20303;-80
2022/09/17 18:00:27;;;;;;;4.33;0.70;;;;;;;;;;5046865;28;20109;-79
2022/09/17 18:02:52;;;;;;;1.00;0.90;;;;;;;;;;5031955;28;20320;-80
2022/09/17 18:05:17;;;;;;;1.30;0.70;;;;;;;;;;5038660;28;20097;-79
2022/09/17 18:07:43;;;;;;;0.73;0.63;;;;;;;;;;5046636;28;20100;-80
2022/09/17 18:10:08;;;;;;;0.82;0.80;;;;;;;;;;5051515;28;20252;-79
2022/09/17 18:12:35;;;;;;;1.42;0.90;;;;;;;;;;5041301;28;20526;-80
2022/09/17 18:15:01;;;;;;;2.70;0.80;;;;;;;;;;5058768;28;20025;-80
2022/09/17 18:17:27;;;;;;;0.70;0.70;;;;;;;;;;5039082;28;20256;-79
2022/09/17 18:19:54;;;;;;;3.17;1.23;;;;;;;;;;5030776;28;20029;-79
2022/09/17 18:22:19;;;;;;;1.00;0.63;;;;;;;;;;5032554;28;20053;-79
2022/09/17 18:24:44;;;;;;;3.47;0.80;;;;;;;;;;5036190;28;20123;-79
2022/09/17 18:27:09;;;;;;;0.97;0.70;;;;;;;;;;5036044;28;20155;-80
2022/09/17 18:29:35;;;;;;;4.35;0.98;;;;;;;;;;5054992;28;20247;-79
2022/09/17 18:32:00;;;;;;;0.70;0.60;;;;;;;;;;5052891;28;20405;-79
2022/09/17 18:34:26;;;;;;;2.08;0.80;;;;;;;;;;5034454;28;20334;-79
2022/09/17 18:36:51;;;;;;;1.63;0.80;;;;;;;;;;5034738;28;20022;-80
2022/09/17 18:39:17;;;;;;;1.70;0.70;;;;;;;;;;5041574;28;20017;-80
2022/09/17 18:41:42;;;;;;;1.38;0.73;;;;;;;;;;5054565;28;20400;-79
2022/09/17 18:44:08;;;;;;;3.05;1.65;;;;;;;;;;5054352;28;20061;-80
2022/09/17 18:46:33;;;;;;;1.40;0.60;;;;;;;;;;5050867;28;20385;-79
2022/09/17 18:48:59;;;;;;;0.73;0.73;;;;;;;;;;5034604;28;20377;-79
2022/09/17 18:51:28;;;;;;;1.45;0.85;;;;;;;;;;5045440;28;20491;-81
2022/09/17 18:53:53;;;;;;;3.47;1.00;;;;;;;;;;5036789;28;20540;-80
2022/09/17 18:56:19;;;;;;;3.17;0.90;;;;;;;;;;5034327;28;20100;-80
2022/09/17 18:58:45;;;;;;;2.78;1.00;;;;;;;;;;5036198;28;20377;-80
2022/09/17 19:01:11;;;;;;;2.17;0.82;;;;;;;;;;5035158;28;20099;-79
2022/09/17 19:03:36;;;;;;;3.63;1.05;;;;;;;;;;5033602;28;20053;-80
2022/09/17 19:06:03;;;;;;;4.93;1.05;;;;;;;;;;5034091;28;20029;-79
2022/09/17 19:08:28;;;;;;;0.82;0.82;;;;;;;;;;5034330;28;20033;-80
2022/09/17 19:10:53;;;;;;;6.07;1.33;;;;;;;;;;5034067;28;20068;-79
2022/09/17 19:13:19;;;;;;;9.05;1.15;;;;;;;;;;5053331;28;20032;-80
2022/09/17 19:15:45;;;;;;;1.13;1.02;;;;;;;;;;5058443;28;20421;-80
2022/09/17 19:18:11;;;;;;;2.95;1.13;;;;;;;;;;5053586;28;20028;-80
2022/09/17 19:20:37;;;;;;;2.20;1.08;;;;;;;;;;5054701;28;20020;-81
2022/09/17 19:23:06;;;;;;;2.75;1.58;;;;;;;;;;5054774;28;20071;-83
2022/09/17 19:25:31;;;;;;;1.45;1.35;;;;;;;;;;5052833;28;20370;-81
2022/09/17 19:27:57;;;;;;;2.03;1.60;;;;;;;;;;5047262;28;20079;-79
2022/09/17 19:30:22;;;;;;;1.55;0.85;;;;;;;;;;5033571;28;20536;-80
2022/09/17 19:32:47;;;;;;;3.47;1.13;;;;;;;;;;5035864;28;20025;-80
2022/09/17 19:35:13;;;;;;;1.00;0.77;;;;;;;;;;5033727;28;20500;-79
2022/09/17 19:37:38;;;;;;;2.25;0.88;;;;;;;;;;5038635;28;20066;-81
2022/09/17 19:40:05;;;;;;;3.40;0.93;;;;;;;;;;5033363;28;20025;-80
2022/09/17 19:42:30;;;;;;;3.08;1.13;;;;;;;;;;5047613;28;20025;-80
2022/09/17 19:44:56;;;;;;;0.97;0.67;;;;;;;;;;5054190;28;20032;-80
2022/09/17 19:47:21;;;;;;;1.77;0.80;;;;;;;;;;5037247;28;20678;-80
2022/09/17 19:49:49;;;;;;;3.25;1.10;;;;;;;;;;5032165;28;20022;-82
2022/09/17 19:52:15;;;;;;;0.95;0.95;;;;;;;;;;5043295;28;20024;-80
2022/09/17 19:54:40;;;;;;;0.65;0.65;;;;;;;;;;5038023;28;20440;-81
2022/09/17 19:57:05;;;;;;;0.87;0.70;;;;;;;;;;5034413;28;20032;-81
2022/09/17 19:59:30;;;;;;;1.00;1.00;;;;;;;;;;5040160;28;20325;-80
2022/09/17 20:01:56;;;;;;;1.35;1.13;;;;;;;;;;5052894;28;20494;-80
2022/09/17 20:04:21;;;;;;;0.85;0.85;;;;;;;;;;5053131;28;20511;-80
2022/09/17 20:06:46;;;;;;;2.28;1.17;;;;;;;;;;5049022;28;20049;-80
2022/09/17 20:09:12;;;;;;;2.47;1.05;;;;;;;;;;5034655;28;20070;-80
2022/09/17 20:11:39;;;;;;;1.35;1.10;;;;;;;;;;5032763;28;20104;-81
2022/09/17 20:14:07;;;;;;;0.52;0.47;;;;;;;;;;5032331;28;20025;-80
2022/09/17 20:16:34;;;;;;;1.65;1.13;;;;;;;;;;5045838;28;20017;-80
2022/09/17 20:18:59;;;;;;;1.63;0.98;;;;;;;;;;5052481;28;20020;-80
2022/09/17 20:21:26;;;;;;;4.07;0.70;;;;;;;;;;5051448;28;20021;-81
2022/09/17 20:23:53;;;;;;;0.82;0.82;;;;;;;;;;5033258;28;20524;-80
2022/09/17 20:26:18;;;;;;;1.83;0.55;;;;;;;;;;5044966;28;20493;-80
2022/09/17 20:28:44;;;;;;;4.13;1.05;;;;;;;;;;5046117;28;20052;-80
2022/09/17 20:31:11;;;;;;;4.03;0.90;;;;;;;;;;5032577;28;20032;-80
2022/09/17 20:33:36;;;;;;;0.80;0.80;;;;;;;;;;5036802;28;20049;-81
2022/09/17 20:36:03;;;;;;;0.82;0.82;;;;;;;;;;5032204;28;20079;-80
2022/09/17 20:38:29;;;;;;;1.33;1.00;;;;;;;;;;5032224;28;20022;-80
2022/09/17 20:41:05;;;;;;;3.78;1.40;;;;;;;;;;5044618;28;20516;-80
2022/09/17 20:43:37;;;;;;;0.85;0.85;;;;;;;;;;5032122;28;20025;-81
2022/09/17 20:46:03;;;;;;;1.45;1.05;;;;;;;;;;5032852;28;20108;-80
2022/09/17 20:48:29;;;;;;;0.70;0.70;;;;;;;;;;5031489;28;20509;-80
2022/09/17 20:50:55;;;;;;;1.40;1.00;;;;;;;;;;5052144;28;20021;-80
2022/09/17 20:53:21;;;;;;;2.00;1.30;;;;;;;;;;5051105;28;20021;-80
2022/09/17 20:55:56;;;;;;;2.03;1.10;;;;;;;;;;5051887;28;20461;-79
2022/09/17 20:58:22;;;;;;;2.03;1.10;;;;;;;;;;5052019;28;20396;-79
2022/09/17 21:00:47;;;;;;;4.22;0.98;;;;;;;;;;5051923;28;20111;-79
2022/09/17 21:03:13;;;;;;;5.30;1.30;;;;;;;;;;5051488;28;20112;-79
2022/09/17 21:05:38;;;;;;;1.33;1.20;;;;;;;;;;5051963;28;20071;-81
2022/09/17 21:08:03;;;;;;;3.42;1.48;;;;;;;;;;5051804;28;20032;-81
2022/09/17 21:10:29;;;;;;;1.73;0.87;;;;;;;;;;5051811;28;20017;-81
2022/09/17 21:12:54;;;;;;;4.10;1.70;;;;;;;;;;5051650;28;20820;-81
2022/09/17 21:15:19;;;;;;;2.13;1.00;;;;;;;;;;5051662;28;20472;-81
2022/09/17 21:17:46;;;;;;;1.10;0.90;;;;;;;;;;5051690;28;20024;-81
2022/09/17 21:20:12;;;;;;;2.03;1.10;;;;;;;;;;5051685;28;20503;-81
2022/09/17 21:22:37;;;;;;;1.67;1.58;;;;;;;;;;5051602;28;20033;-81
2022/09/17 21:25:03;;;;;;;1.23;0.90;;;;;;;;;;5051180;28;20017;-81
2022/09/17 21:27:31;;;;;;;1.88;1.70;;;;;;;;;;5051549;28;20132;-81
2022/09/17 21:29:57;;;;;;;1.58;1.10;;;;;;;;;;5051462;28;20021;-81
2022/09/17 21:32:22;;;;;;;2.75;1.40;;;;;;;;;;5051423;28;20031;-81
2022/09/17 21:34:50;;;;;;;0.80;0.80;;;;;;;;;;5051766;28;20033;-81
2022/09/17 21:37:15;;;;;;;1.38;0.95;;;;;;;;;;5051403;28;20469;-81
2022/09/17 21:39:41;;;;;;;6.10;1.07;;;;;;;;;;5051247;28;20025;-81
2022/09/17 21:42:07;;;;;;;2.45;1.15;;;;;;;;;;5051269;28;20343;-81
2022/09/17 21:44:32;;;;;;;1.30;1.17;;;;;;;;;;5051649;28;20369;-81
2022/09/17 21:46:57;;;;;;;4.07;1.57;;;;;;;;;;5051246;28;20119;-80
2022/09/17 21:49:23;;;;;;;1.77;1.40;;;;;;;;;;5051335;28;20251;-81
2022/09/17 21:51:49;;;;;;;2.40;1.23;;;;;;;;;;5051894;28;20025;-81
2022/09/17 21:54:15;;;;;;;1.98;1.25;;;;;;;;;;5051132;28;20021;-81
2022/09/17 21:56:41;;;;;;;1.45;1.15;;;;;;;;;;5051118;28;20028;-81
2022/09/17 21:59:07;;;;;;;1.80;1.20;;;;;;;;;;5052696;28;20021;-81
2022/09/17 22:01:38;;;;;;;1.77;1.30;;;;;;;;;;5050952;28;20078;-80
2022/09/17 22:04:03;;;;;;;2.40;1.20;;;;;;;;;;5051321;28;20503;-81
2022/09/17 22:06:29;;;;;;;2.78;1.33;;;;;;;;;;5050664;28;20018;-81
2022/09/17 22:08:55;;;;;;;1.75;1.48;;;;;;;;;;5050951;28;20031;-81
2022/09/17 22:11:39;;;;;;;1.73;0.90;;;;;;;;;;5049343;28;20013;-80
2022/09/17 22:14:07;;;;;;;2.80;1.08;;;;;;;;;;5050933;28;20075;-80
2022/09/17 22:16:34;;;;;;;0.93;0.70;;;;;;;;;;5050587;28;20017;-81
2022/09/17 22:19:01;;;;;;;6.00;2.25;;;;;;;;;;5050986;28;20396;-80
2022/09/17 22:21:28;;;;;;;1.83;1.48;;;;;;;;;;5050622;28;20017;-81
2022/09/17 22:23:54;;;;;;;1.55;1.20;;;;;;;;;;5050645;28;20029;-81
2022/09/17 22:26:20;;;;;;;5.13;1.20;;;;;;;;;;5051262;28;20021;-81
2022/09/17 22:28:46;;;;;;;2.85;1.40;;;;;;;;;;5050744;28;20543;-81
2022/09/17 22:31:12;;;;;;;2.53;1.10;;;;;;;;;;5050883;28;20021;-81
2022/09/17 22:33:39;;;;;;;1.90;0.90;;;;;;;;;;5050660;28;20024;-81
2022/09/17 22:36:05;;;;;;;2.03;1.20;;;;;;;;;;5051978;28;20013;-81
2022/09/17 22:38:31;;;;;;;1.17;1.05;;;;;;;;;;5050679;28;20017;-81
2022/09/17 22:41:01;;;;;;;4.25;1.27;;;;;;;;;;5051264;28;20104;-80
2022/09/17 22:43:26;;;;;;;1.80;0.80;;;;;;;;;;5050568;28;20029;-81
2022/09/17 22:45:51;;;;;;;1.88;1.27;;;;;;;;;;5050414;28;20029;-81
2022/09/17 22:48:16;;;;;;;1.73;1.38;;;;;;;;;;5051785;28;20021;-80
2022/09/17 22:50:47;;;;;;;2.10;1.10;;;;;;;;;;5050769;28;20017;-80
2022/09/17 22:53:12;;;;;;;6.57;1.58;;;;;;;;;;5051754;28;20240;-80
2022/09/17 22:55:38;;;;;;;2.90;1.40;;;;;;;;;;5050450;28;20473;-80
2022/09/17 22:58:03;;;;;;;4.75;1.13;;;;;;;;;;5050354;28;20299;-80
2022/09/17 23:00:28;;;;;;;1.90;1.50;;;;;;;;;;5050728;28;20017;-80
2022/09/17 23:02:54;;;;;;;2.17;1.17;;;;;;;;;;5050387;28;20633;-80
2022/09/17 23:05:19;;;;;;;0.60;0.60;;;;;;;;;;5050246;28;20048;-80
2022/09/17 23:07:44;;;;;;;5.93;1.02;;;;;;;;;;5050302;28;20259;-80
2022/09/17 23:10:10;;;;;;;1.08;0.82;;;;;;;;;;5050362;28;20074;-79
2022/09/17 23:12:35;;;;;;;3.83;1.52;;;;;;;;;;5053394;28;20104;-80
2022/09/17 23:15:00;;;;;;;5.50;1.17;;;;;;;;;;5054004;28;20043;-80
2022/09/17 23:17:25;;;;;;;10.30;1.17;;;;;;;;;;5053930;28;20597;-80
2022/09/17 23:19:51;;;;;;;1.33;1.10;;;;;;;;;;5054081;28;20254;-80
2022/09/17 23:22:16;;;;;;;1.40;1.00;;;;;;;;;;5053819;28;20021;-80
2022/09/17 23:24:41;;;;;;;1.35;1.02;;;;;;;;;;5053693;28;20275;-80
2022/09/17 23:27:06;;;;;;;1.83;1.30;;;;;;;;;;5053952;28;20112;-80
2022/09/17 23:29:32;;;;;;;1.40;0.95;;;;;;;;;;5054192;28;20310;-80
2022/09/17 23:31:57;;;;;;;3.03;1.40;;;;;;;;;;5053711;28;20527;-80
2022/09/17 23:34:22;;;;;;;0.63;0.63;;;;;;;;;;5053667;28;20025;-80
2022/09/17 23:36:48;;;;;;;1.83;1.30;;;;;;;;;;5053524;28;20021;-80
2022/09/17 23:39:13;;;;;;;2.40;0.88;;;;;;;;;;5054821;28;20017;-80
2022/09/17 23:41:41;;;;;;;1.58;1.40;;;;;;;;;;5054050;28;20021;-80
2022/09/17 23:44:08;;;;;;;4.88;1.77;;;;;;;;;;5053366;28;20052;-80
2022/09/17 23:46:34;;;;;;;4.68;1.00;;;;;;;;;;5053316;28;20033;-80
2022/09/17 23:49:00;;;;;;;1.50;0.93;;;;;;;;;;5054576;28;20103;-80
2022/09/17 23:51:26;;;;;;;1.33;1.00;;;;;;;;;;5053205;28;20056;-80
2022/09/17 23:53:53;;;;;;;1.70;0.90;;;;;;;;;;5053232;28;20021;-80
2022/09/17 23:56:20;;;;;;;5.88;1.25;;;;;;;;;;5052865;28;20025;-80
2022/09/17 23:58:45;;;;;;;0.90;0.80;;;;;;;;;;5053163;28;20024;-81
